Time;durP1;ratioP1;P1;durP2;ratioP2;P2;SDS_P1;SDS_P2;PMS_P1;PMS_P2;Temp;Humidity;BMP_temperature;BMP_pressure;BME280_temperature;BME280_humidity;BME280_pressure;Samples;Min_cycle;Max_cycle;Signal;HPM_P1;HPM_P2
2022/07/03 00:00:43;;;;;;;27.92;19.50;;;15.40;99.90;;;;;;5072384;28;20151;-54
2022/07/03 00:03:09;;;;;;;25.95;15.90;;;15.40;99.90;;;;;;5072385;28;20146;-54
2022/07/03 00:05:36;;;;;;;21.42;14.77;;;15.30;99.90;;;;;;5071879;28;20036;-54
2022/07/03 00:08:03;;;;;;;20.98;15.32;;;15.40;99.90;;;;;;5070961;28;20016;-54
2022/07/03 00:10:29;;;;;;;21.70;15.60;;;15.40;99.90;;;;;;5072200;28;20048;-53
2022/07/03 00:12:55;;;;;;;18.40;14.40;;;15.30;99.90;;;;;;5072153;28;20486;-53
2022/07/03 00:15:21;;;;;;;27.85;14.32;;;15.20;99.90;;;;;;5072252;28;20025;-54
2022/07/03 00:17:46;;;;;;;20.73;13.40;;;15.10;99.90;;;;;;5072138;28;20052;-54
2022/07/03 00:20:12;;;;;;;21.23;12.52;;;15.20;99.90;;;;;;5072327;28;20032;-53
2022/07/03 00:22:42;;;;;;;20.77;13.20;;;15.30;99.90;;;;;;5071965;28;20487;-54
2022/07/03 00:25:12;;;;;;;17.75;11.63;;;15.20;99.90;;;;;;5070500;28;20492;-54
2022/07/03 00:27:38;;;;;;;15.93;10.57;;;15.20;99.90;;;;;;5071880;28;20468;-53
2022/07/03 00:30:07;;;;;;;13.63;10.85;;;15.20;99.90;;;;;;5071879;28;20033;-53
2022/07/03 00:32:37;;;;;;;17.30;13.00;;;15.10;99.90;;;;;;5071667;28;20032;-53
2022/07/03 00:35:03;;;;;;;20.63;13.20;;;15.00;99.90;;;;;;5071669;28;20588;-54
2022/07/03 00:37:29;;;;;;;21.42;14.55;;;15.00;99.90;;;;;;5071854;28;20060;-54
2022/07/03 00:39:57;;;;;;;18.77;13.57;;;15.10;99.90;;;;;;5071691;28;20023;-54
2022/07/03 00:42:23;;;;;;;24.23;14.55;;;15.00;99.90;;;;;;5071654;28;20028;-54
2022/07/03 00:44:53;;;;;;;19.73;13.38;;;15.00;99.90;;;;;;5070692;28;20043;-55
2022/07/03 00:47:21;;;;;;;23.17;14.70;;;15.00;99.90;;;;;;5071685;28;20024;-55
2022/07/03 00:49:55;;;;;;;19.60;13.23;;;15.00;99.90;;;;;;5071647;28;20032;-54
2022/07/03 00:52:22;;;;;;;17.75;13.15;;;14.90;99.90;;;;;;5071415;28;20116;-54
2022/07/03 00:54:56;;;;;;;19.65;13.25;;;14.90;99.90;;;;;;5071252;28;20020;-54
2022/07/03 00:57:24;;;;;;;18.05;12.25;;;14.90;99.90;;;;;;5071328;28;20079;-54
2022/07/03 00:59:50;;;;;;;16.20;12.77;;;14.90;99.90;;;;;;5071266;28;20051;-54
2022/07/03 01:02:38;;;;;;;18.00;12.98;;;14.80;99.90;;;;;;5071420;28;20384;-54
2022/07/03 01:05:09;;;;;;;17.67;11.87;;;14.80;99.90;;;;;;5071283;28;20056;-54
2022/07/03 01:07:56;;;;;;;20.30;13.10;;;14.80;99.90;;;;;;5071472;28;20108;-54
2022/07/03 01:10:30;;;;;;;17.52;12.13;;;14.80;99.90;;;;;;5071095;28;20029;-54
2022/07/03 01:13:24;;;;;;;18.27;13.13;;;14.80;99.90;;;;;;5069584;28;20078;-54
2022/07/03 01:16:31;;;;;;;17.30;12.38;;;14.90;99.90;;;;;;5070903;28;20044;-54
2022/07/03 01:19:30;;;;;;;15.93;12.07;;;14.90;99.90;;;;;;5067765;28;20032;-54
2022/07/03 01:22:01;;;;;;;18.95;12.95;;;14.90;99.90;;;;;;5070997;28;20058;-54
2022/07/03 01:24:44;;;;;;;18.23;12.82;;;14.70;99.90;;;;;;5071056;28;20062;-54
2022/07/03 01:27:44;;;;;;;16.50;11.40;;;14.60;99.90;;;;;;5070833;28;20090;-54
2022/07/03 01:30:11;;;;;;;18.92;11.90;;;14.60;99.90;;;;;;5060080;28;20040;-54
2022/07/03 01:32:54;;;;;;;18.70;12.35;;;14.50;99.90;;;;;;5070797;28;20082;-54
2022/07/03 01:35:34;;;;;;;17.60;11.93;;;14.50;99.90;;;;;;5070682;28;20143;-54
2022/07/03 01:38:05;;;;;;;34.22;13.35;;;14.50;99.90;;;;;;5070977;28;20036;-54
2022/07/03 01:40:36;;;;;;;19.70;13.63;;;14.60;99.90;;;;;;5070888;28;20032;-54
2022/07/03 01:43:05;;;;;;;20.35;11.75;;;14.50;99.90;;;;;;5070695;28;20482;-55
2022/07/03 01:45:34;;;;;;;15.93;11.77;;;14.60;99.90;;;;;;5069634;28;20052;-54
2022/07/03 01:48:02;;;;;;;17.52;12.00;;;14.60;99.90;;;;;;5069208;28;20033;-54
2022/07/03 01:50:28;;;;;;;;;;;14.50;99.90;;;;;;5071339;28;20090;-54
2022/07/03 01:52:56;;;;;;;17.15;13.38;;;14.60;99.90;;;;;;5069379;28;19908;-54
2022/07/03 01:55:23;;;;;;;16.65;11.90;;;14.50;99.90;;;;;;5070535;28;20056;-54
2022/07/03 01:57:50;;;;;;;23.35;13.80;;;14.60;99.90;;;;;;5070207;28;20028;-54
2022/07/03 02:00:18;;;;;;;18.75;13.75;;;14.60;99.90;;;;;;5070417;28;20031;-53
2022/07/03 02:03:01;;;;;;;23.15;13.57;;;14.70;99.90;;;;;;5069021;28;20090;-53
2022/07/03 02:05:38;;;;;;;17.65;12.70;;;14.60;99.90;;;;;;5070507;28;20040;-53
2022/07/03 02:08:23;;;;;;;19.25;13.90;;;14.60;99.90;;;;;;5070458;28;20032;-54
2022/07/03 02:11:16;;;;;;;20.33;12.40;;;14.60;99.90;;;;;;5070290;28;20079;-53
2022/07/03 02:13:50;;;;;;;19.75;12.23;;;14.70;99.90;;;;;;5070471;28;20777;-54
2022/07/03 02:16:19;;;;;;;16.42;12.00;;;14.80;99.90;;;;;;5070307;28;20104;-53
2022/07/03 02:18:59;;;;;;;16.35;11.38;;;14.80;99.90;;;;;;5070268;28;20032;-54
2022/07/03 02:21:29;;;;;;;15.80;12.10;;;14.80;99.90;;;;;;5069998;28;20039;-54
2022/07/03 02:24:16;;;;;;;15.27;11.85;;;14.80;99.90;;;;;;5070583;28;20029;-53
2022/07/03 02:26:45;;;;;;;19.35;12.80;;;14.70;99.90;;;;;;5070454;28;20064;-54
2022/07/03 02:29:17;;;;;;;19.55;12.98;;;14.80;99.90;;;;;;5070152;28;20044;-53
2022/07/03 02:32:02;;;;;;;21.63;15.30;;;14.60;99.90;;;;;;5070138;28;20495;-54
2022/07/03 02:34:29;;;;;;;22.08;14.88;;;14.50;99.90;;;;;;5070264;28;20040;-54
2022/07/03 02:37:09;;;;;;;24.05;15.15;;;14.60;99.90;;;;;;5069961;28;20393;-53
2022/07/03 02:39:43;;;;;;;21.58;14.90;;;14.60;99.90;;;;;;5070115;28;20115;-54
2022/07/03 02:42:20;;;;;;;21.92;14.02;;;14.60;99.90;;;;;;5070402;28;20028;-54
2022/07/03 02:44:49;;;;;;;26.48;16.02;;;14.70;99.90;;;;;;5070202;28;20101;-54
2022/07/03 02:47:27;;;;;;;22.85;14.60;;;14.70;99.90;;;;;;5070032;28;20028;-54
2022/07/03 02:50:00;;;;;;;;;;;14.60;99.90;;;;;;5070574;28;20029;-54
2022/07/03 02:52:29;;;;;;;23.50;15.70;;;14.70;99.90;;;;;;5070157;28;19912;-54
2022/07/03 02:55:09;;;;;;;23.23;14.35;;;14.80;99.90;;;;;;5069995;28;20074;-54
2022/07/03 02:57:39;;;;;;;18.00;13.13;;;14.80;99.90;;;;;;5069800;28;20031;-54
2022/07/03 03:00:11;;;;;;;18.83;12.07;;;14.80;99.90;;;;;;5070101;28;20055;-53
2022/07/03 03:02:56;;;;;;;19.80;13.85;;;14.70;99.90;;;;;;5068664;28;20032;-54
2022/07/03 03:05:37;;;;;;;25.73;16.15;;;14.80;99.90;;;;;;5068632;28;20039;-54
2022/07/03 03:08:15;;;;;;;29.58;14.65;;;14.70;99.90;;;;;;5070212;28;20021;-54
2022/07/03 03:10:43;;;;;;;19.73;14.20;;;14.60;99.90;;;;;;5073376;28;20076;-54
2022/07/03 03:13:11;;;;;;;21.90;13.90;;;14.50;99.90;;;;;;5073567;28;20102;-53
2022/07/03 03:15:39;;;;;;;19.50;13.85;;;14.50;99.90;;;;;;5073484;28;20037;-54
2022/07/03 03:18:07;;;;;;;;;;;14.60;99.90;;;;;;5073833;28;20753;-54
2022/07/03 03:20:36;;;;;;;21.23;15.60;;;14.60;99.90;;;;;;5073280;28;20012;-54
2022/07/03 03:23:21;;;;;;;21.27;14.82;;;14.70;99.90;;;;;;5073389;28;20064;-54
2022/07/03 03:25:47;;;;;;;23.35;16.02;;;14.70;99.90;;;;;;5073337;28;20036;-54
2022/07/03 03:28:14;;;;;;;17.15;12.68;;;14.70;99.90;;;;;;5073150;28;20029;-55
2022/07/03 03:30:40;;;;;;;17.75;13.05;;;14.70;99.90;;;;;;5073076;28;20788;-54
2022/07/03 03:33:09;;;;;;;17.40;12.40;;;14.80;99.90;;;;;;5073197;28;20036;-53
2022/07/03 03:35:44;;;;;;;21.98;13.90;;;14.80;99.90;;;;;;5073056;28;20046;-53
2022/07/03 03:38:10;;;;;;;19.05;13.75;;;14.70;99.90;;;;;;5073061;28;20025;-53
2022/07/03 03:40:36;;;;;;;21.02;14.40;;;14.70;99.90;;;;;;5072925;28;20403;-53
2022/07/03 03:43:03;;;;;;;23.45;15.38;;;14.80;99.90;;;;;;5073088;28;20031;-54
2022/07/03 03:45:29;;;;;;;26.60;15.03;;;14.70;99.90;;;;;;5072722;28;20123;-53
2022/07/03 03:47:54;;;;;;;24.75;17.10;;;14.60;99.90;;;;;;5071352;28;20810;-53
2022/07/03 03:50:20;;;;;;;23.92;16.20;;;14.60;99.90;;;;;;5072743;28;20099;-54
2022/07/03 03:52:47;;;;;;;25.00;17.50;;;14.60;99.90;;;;;;5072825;28;20108;-53
2022/07/03 03:55:12;;;;;;;26.98;17.48;;;14.70;99.90;;;;;;5072862;28;20453;-54
2022/07/03 03:57:38;;;;;;;28.23;19.25;;;14.80;99.90;;;;;;5072819;28;20487;-53
2022/07/03 04:00:05;;;;;;;25.27;16.85;;;14.80;99.90;;;;;;5071197;28;20059;-54
2022/07/03 04:02:31;;;;;;;25.60;18.52;;;14.90;99.90;;;;;;5072540;28;20073;-53
2022/07/03 04:04:57;;;;;;;30.15;19.35;;;15.00;99.90;;;;;;5070823;28;20036;-53
2022/07/03 04:07:23;;;;;;;25.52;19.15;;;15.00;99.90;;;;;;5072534;28;20020;-53
2022/07/03 04:09:48;;;;;;;29.80;19.38;;;15.10;99.90;;;;;;5072590;28;20029;-54
2022/07/03 04:12:14;;;;;;;29.27;18.85;;;15.20;99.90;;;;;;5070940;28;20052;-54
2022/07/03 04:14:40;;;;;;;27.67;18.73;;;15.30;99.90;;;;;;5072599;28;20040;-53
2022/07/03 04:17:06;;;;;;;26.90;18.30;;;15.30;99.90;;;;;;5072198;28;20501;-53
2022/07/03 04:19:32;;;;;;;24.65;17.63;;;15.40;99.90;;;;;;5072004;28;20036;-53
2022/07/03 04:21:58;;;;;;;29.75;17.88;;;15.50;99.90;;;;;;5072085;28;20524;-54
2022/07/03 04:24:23;;;;;;;25.08;18.65;;;15.60;99.90;;;;;;5072185;28;20035;-54
2022/07/03 04:26:49;;;;;;;26.58;18.45;;;15.70;99.90;;;;;;5072337;28;20033;-55
2022/07/03 04:29:15;;;;;;;24.90;18.45;;;15.70;99.90;;;;;;5070861;28;20025;-55
2022/07/03 04:31:40;;;;;;;23.15;17.63;;;15.80;99.90;;;;;;5071871;28;20085;-55
2022/07/03 04:34:06;;;;;;;22.38;16.27;;;15.90;99.90;;;;;;5070516;28;20039;-55
2022/07/03 04:36:32;;;;;;;26.38;17.33;;;16.10;99.90;;;;;;5072045;28;20027;-55
2022/07/03 04:38:58;;;;;;;25.92;17.15;;;16.10;99.90;;;;;;5071787;28;20028;-54
2022/07/03 04:41:23;;;;;;;23.10;17.15;;;16.20;99.90;;;;;;5070400;28;20025;-54
2022/07/03 04:43:49;;;;;;;22.77;16.80;;;16.30;99.90;;;;;;5071694;28;20070;-55
2022/07/03 04:46:15;;;;;;;24.65;17.63;;;16.40;99.90;;;;;;5071427;28;20046;-55
2022/07/03 04:48:41;;;;;;;24.27;18.67;;;16.40;99.90;;;;;;5071500;28;20029;-54
2022/07/03 04:51:06;;;;;;;21.98;16.67;;;16.50;99.90;;;;;;5071618;28;20116;-55
2022/07/03 04:53:32;;;;;;;21.77;17.35;;;16.50;99.90;;;;;;5070448;28;20025;-55
2022/07/03 04:55:58;;;;;;;22.92;16.58;;;16.60;99.90;;;;;;5071592;28;20429;-55
2022/07/03 04:58:24;;;;;;;20.67;16.83;;;16.70;99.90;;;;;;5071613;28;20021;-55
2022/07/03 05:00:49;;;;;;;24.30;18.05;;;16.70;99.90;;;;;;5071618;28;20546;-53
2022/07/03 05:03:15;;;;;;;23.58;17.60;;;16.80;99.90;;;;;;5071222;28;20408;-55
2022/07/03 05:05:41;;;;;;;22.95;17.75;;;16.80;99.90;;;;;;5071198;28;20389;-54
2022/07/03 05:08:07;;;;;;;19.45;15.52;;;16.90;99.90;;;;;;5070126;28;20059;-55
2022/07/03 05:10:32;;;;;;;21.20;17.00;;;17.00;99.90;;;;;;5071205;28;20037;-54
2022/07/03 05:12:58;;;;;;;22.55;17.38;;;17.10;99.90;;;;;;5071341;28;20037;-55
2022/07/03 05:15:24;;;;;;;21.67;16.33;;;17.10;99.90;;;;;;5071229;28;20028;-55
2022/07/03 05:17:49;;;;;;;22.92;17.20;;;17.10;99.90;;;;;;5070962;28;20062;-54
2022/07/03 05:20:24;;;;;;;21.23;16.73;;;17.20;99.90;;;;;;5071284;28;20039;-54
2022/07/03 05:22:57;;;;;;;21.45;18.02;;;17.20;99.90;;;;;;5071119;28;20025;-54
2022/07/03 05:25:23;;;;;;;20.63;17.30;;;17.30;99.90;;;;;;5071150;28;20029;-54
2022/07/03 05:27:50;;;;;;;21.47;16.90;;;17.30;99.90;;;;;;5071039;28;20493;-54
2022/07/03 05:30:17;;;;;;;22.42;17.60;;;17.30;99.90;;;;;;5070947;28;20262;-54
2022/07/03 05:32:43;;;;;;;22.05;17.50;;;17.40;99.90;;;;;;5070281;28;20496;-55
2022/07/03 05:35:09;;;;;;;20.25;17.50;;;17.40;99.90;;;;;;5070884;28;20032;-54
2022/07/03 05:37:34;;;;;;;22.23;16.27;;;17.50;99.90;;;;;;5070764;28;20103;-54
2022/07/03 05:40:00;;;;;;;21.75;15.85;;;17.60;99.90;;;;;;5070974;28;20045;-54
2022/07/03 05:42:26;;;;;;;20.27;16.00;;;17.70;99.90;;;;;;5070889;28;20429;-54
2022/07/03 05:44:51;;;;;;;17.63;14.43;;;17.70;99.90;;;;;;5070811;28;20025;-52
2022/07/03 05:47:17;;;;;;;19.52;15.10;;;17.70;99.90;;;;;;5070858;28;20061;-53
2022/07/03 05:49:43;;;;;;;17.10;13.70;;;17.80;99.90;;;;;;5070880;28;20025;-54
2022/07/03 05:52:09;;;;;;;19.13;15.23;;;17.90;99.90;;;;;;5070694;28;20032;-53
2022/07/03 05:54:34;;;;;;;19.08;15.40;;;18.00;99.90;;;;;;5070615;28;20478;-53
2022/07/03 05:57:00;;;;;;;18.75;15.18;;;18.10;99.90;;;;;;5070607;28;20088;-54
2022/07/03 05:59:26;;;;;;;17.77;13.50;;;18.20;99.90;;;;;;5070692;28;20036;-54
2022/07/03 06:01:51;;;;;;;18.92;13.95;;;18.30;99.90;;;;;;5070912;28;20111;-53
2022/07/03 06:04:17;;;;;;;21.95;14.73;;;18.50;99.90;;;;;;5070554;28;20032;-54
2022/07/03 06:06:43;;;;;;;19.92;13.82;;;18.50;99.90;;;;;;5070574;28;20044;-54
2022/07/03 06:09:09;;;;;;;16.67;12.82;;;18.60;99.90;;;;;;5069718;28;20020;-54
2022/07/03 06:11:35;;;;;;;15.13;13.05;;;18.80;99.90;;;;;;5068523;28;20152;-55
2022/07/03 06:14:01;;;;;;;14.82;11.82;;;18.90;99.90;;;;;;5068918;28;20029;-54
2022/07/03 06:16:26;;;;;;;13.55;10.95;;;18.90;99.90;;;;;;5070121;28;20039;-54
2022/07/03 06:18:52;;;;;;;16.77;10.88;;;19.00;99.90;;;;;;5070407;28;20440;-54
2022/07/03 06:21:18;;;;;;;12.23;9.73;;;19.00;99.90;;;;;;5070215;28;20369;-55
2022/07/03 06:23:44;;;;;;;12.40;9.30;;;19.20;99.90;;;;;;5069952;28;20032;-55
2022/07/03 06:26:09;;;;;;;11.18;8.77;;;19.30;99.90;;;;;;5070413;28;20036;-55
2022/07/03 06:28:35;;;;;;;11.60;9.18;;;19.30;99.90;;;;;;5070308;28;20395;-55
2022/07/03 06:31:00;;;;;;;13.65;9.93;;;19.40;99.90;;;;;;5070353;28;20036;-56
2022/07/03 06:33:27;;;;;;;12.23;8.95;;;19.40;99.90;;;;;;5070454;28;20021;-53
2022/07/03 06:35:52;;;;;;;12.13;8.68;;;19.60;99.90;;;;;;5070287;28;20182;-54
2022/07/03 06:38:18;;;;;;;9.85;8.15;;;19.60;99.90;;;;;;5070662;28;20111;-55
2022/07/03 06:40:44;;;;;;;12.15;8.77;;;19.60;99.90;;;;;;5070296;28;20055;-55
2022/07/03 06:43:09;;;;;;;11.77;8.77;;;19.60;99.90;;;;;;5070715;28;20031;-54
2022/07/03 06:45:35;;;;;;;12.68;8.55;;;19.60;99.90;;;;;;5073973;28;20068;-54
2022/07/03 06:48:01;;;;;;;11.40;8.55;;;19.70;99.90;;;;;;5073714;28;20030;-54
2022/07/03 06:50:26;;;;;;;9.93;8.63;;;19.70;99.90;;;;;;5074093;28;20035;-55
2022/07/03 06:52:52;;;;;;;12.57;8.75;;;19.80;99.90;;;;;;5074005;28;20035;-55
2022/07/03 06:55:18;;;;;;;10.93;9.25;;;19.90;99.90;;;;;;5074130;28;20028;-54
2022/07/03 06:57:44;;;;;;;13.77;8.93;;;19.90;99.90;;;;;;5072579;28;20380;-54
2022/07/03 07:00:10;;;;;;;10.02;8.75;;;19.90;99.90;;;;;;5073669;28;20028;-54
2022/07/03 07:02:36;;;;;;;10.90;8.37;;;19.90;99.90;;;;;;5073779;28;20024;-54
2022/07/03 07:05:02;;;;;;;12.05;9.07;;;20.00;99.90;;;;;;5073679;28;20503;-53
2022/07/03 07:07:27;;;;;;;12.90;9.15;;;20.10;99.90;;;;;;5073669;28;20114;-54
2022/07/03 07:09:53;;;;;;;12.23;8.93;;;20.20;99.90;;;;;;5073591;28;20017;-55
2022/07/03 07:12:19;;;;;;;11.02;8.70;;;20.20;99.90;;;;;;5073199;28;20090;-55
2022/07/03 07:14:44;;;;;;;14.57;9.40;;;20.30;99.90;;;;;;5073294;28;20036;-55
2022/07/03 07:17:10;;;;;;;9.60;7.80;;;20.50;99.90;;;;;;5073529;28;20115;-56
2022/07/03 07:19:36;;;;;;;9.90;7.82;;;20.60;99.90;;;;;;5073309;28;20415;-55
2022/07/03 07:22:02;;;;;;;10.35;7.68;;;20.80;99.90;;;;;;5073417;28;20021;-55
2022/07/03 07:24:28;;;;;;;8.25;7.20;;;20.80;99.90;;;;;;5073162;28;20118;-55
2022/07/03 07:26:54;;;;;;;7.67;6.53;;;20.80;99.90;;;;;;5072798;28;20451;-55
2022/07/03 07:29:20;;;;;;;10.65;6.93;;;20.80;99.90;;;;;;5072690;28;20044;-55
2022/07/03 07:31:46;;;;;;;9.70;6.43;;;20.80;99.90;;;;;;5062887;28;20032;-54
2022/07/03 07:34:11;;;;;;;9.15;7.07;;;20.90;99.90;;;;;;5062694;28;20039;-54
2022/07/03 07:36:37;;;;;;;5.72;4.93;;;20.90;99.90;;;;;;5072596;28;20021;-53
2022/07/03 07:39:03;;;;;;;7.95;6.45;;;21.00;99.90;;;;;;5072075;28;20032;-54
2022/07/03 07:41:29;;;;;;;8.48;6.47;;;21.20;99.90;;;;;;5072330;28;20024;-52
2022/07/03 07:43:54;;;;;;;8.55;6.72;;;21.40;99.90;;;;;;5071251;28;20029;-53
2022/07/03 07:46:20;;;;;;;9.85;7.28;;;21.50;99.90;;;;;;5071708;28;20499;-52
2022/07/03 07:48:46;;;;;;;9.07;7.00;;;21.50;99.90;;;;;;5072816;28;20460;-53
2022/07/03 07:51:12;;;;;;;9.63;7.10;;;21.40;99.90;;;;;;5072578;28;20448;-53
2022/07/03 07:53:37;;;;;;;8.70;5.90;;;21.50;99.90;;;;;;5071736;28;20456;-54
2022/07/03 07:56:06;;;;;;;8.45;6.65;;;21.80;99.90;;;;;;5070926;28;20120;-53
2022/07/03 07:58:31;;;;;;;9.43;6.75;;;21.80;99.90;;;;;;5071655;28;20031;-55
2022/07/03 08:06:32;;;;;;;10.88;6.78;;;22.00;99.90;;;;;;5072423;28;20093;-54
2022/07/03 08:08:57;;;;;;;8.48;7.10;;;22.10;99.90;;;;;;5072572;28;20029;-53
2022/07/03 08:11:23;;;;;;;12.70;7.18;;;22.00;99.90;;;;;;5072012;28;20049;-53
2022/07/03 08:13:49;;;;;;;9.82;5.90;;;22.00;99.90;;;;;;5072582;28;20032;-55
2022/07/03 08:16:17;;;;;;;8.45;6.70;;;22.10;99.90;;;;;;5070919;28;20028;-54
2022/07/03 08:18:42;;;;;;;8.68;6.70;;;22.00;99.90;;;;;;5072204;28;20029;-54
2022/07/03 08:21:08;;;;;;;8.80;6.55;;;22.10;99.90;;;;;;5070746;28;20400;-55
2022/07/03 08:23:34;;;;;;;6.90;5.50;;;22.00;99.90;;;;;;5072140;28;20550;-55
2022/07/03 08:26:00;;;;;;;9.85;6.10;;;22.10;99.90;;;;;;5072104;28;20051;-56
2022/07/03 08:28:27;;;;;;;8.95;5.60;;;22.20;99.90;;;;;;5072023;28;20025;-54
2022/07/03 08:30:55;;;;;;;8.20;5.53;;;22.30;99.90;;;;;;5072153;28;20086;-55
2022/07/03 08:33:21;;;;;;;7.55;5.70;;;22.50;99.90;;;;;;5070730;28;20056;-55
2022/07/03 08:35:47;;;;;;;7.50;6.10;;;22.50;99.90;;;;;;5071774;28;20028;-55
2022/07/03 08:38:17;;;;;;;8.70;6.28;;;22.60;99.90;;;;;;5072269;28;20062;-53
2022/07/03 08:40:44;;;;;;;10.02;7.13;;;22.60;99.90;;;;;;5070716;28;20033;-54
2022/07/03 08:43:19;;;;;;;8.90;6.32;;;22.70;99.90;;;;;;5072198;28;20028;-55
2022/07/03 08:45:46;;;;;;;14.30;6.00;;;22.70;99.90;;;;;;5070573;28;20036;-55
2022/07/03 08:48:13;;;;;;;7.15;6.10;;;22.90;99.90;;;;;;5071615;28;20032;-54
2022/07/03 08:50:39;;;;;;;9.63;6.22;;;23.00;99.90;;;;;;5071530;28;20033;-54
2022/07/03 08:53:11;;;;;;;8.70;6.93;;;23.10;99.90;;;;;;5071734;28;20123;-54
2022/07/03 08:55:37;;;;;;;7.32;6.30;;;22.90;99.90;;;;;;5071503;28;20442;-53
2022/07/03 08:58:06;;;;;;;6.07;5.18;;;23.00;99.90;;;;;;5071466;28;20468;-54
2022/07/03 09:00:32;;;;;;;9.80;5.88;;;23.00;99.90;;;;;;5070618;28;20020;-53
2022/07/03 09:03:00;;;;;;;8.00;6.63;;;23.00;99.90;;;;;;5070759;28;20498;-52
2022/07/03 09:05:26;;;;;;;6.93;5.70;;;23.20;99.90;;;;;;5044256;28;20032;-54
2022/07/03 09:07:53;;;;;;;9.88;6.10;;;23.30;99.90;;;;;;5070471;28;20021;-52
2022/07/03 09:10:19;;;;;;;6.45;5.30;;;23.50;99.90;;;;;;5070674;28;20031;-53
2022/07/03 09:12:46;;;;;;;7.18;5.82;;;23.80;99.90;;;;;;5070750;28;20032;-53
2022/07/03 09:15:13;;;;;;;7.88;6.05;;;23.70;99.90;;;;;;5070769;28;20111;-54
2022/07/03 09:17:39;;;;;;;9.35;5.82;;;23.60;99.90;;;;;;5070506;28;20028;-54
2022/07/03 09:20:07;;;;;;;8.10;5.78;;;23.50;99.90;;;;;;5061155;28;20117;-55
2022/07/03 09:22:35;;;;;;;6.88;5.30;;;23.50;99.90;;;;;;5068169;28;20069;-54
2022/07/03 09:25:13;;;;;;;7.85;5.45;;;23.40;99.90;;;;;;5070589;28;20036;-53
2022/07/03 09:27:52;;;;;;;7.45;5.15;;;23.50;99.90;;;;;;5060952;28;20379;-54
2022/07/03 09:30:19;;;;;;;7.68;5.85;;;23.50;99.90;;;;;;5069204;28;20068;-54
2022/07/03 09:32:47;;;;;;;8.30;5.27;;;23.70;99.90;;;;;;5066849;28;20093;-55
2022/07/03 09:35:23;;;;;;;7.60;5.07;;;23.90;99.90;;;;;;5060536;28;20024;-54
2022/07/03 09:37:55;;;;;;;6.72;5.53;;;23.90;99.90;;;;;;5069944;28;20070;-52
2022/07/03 09:40:25;;;;;;;8.55;5.30;;;23.60;99.90;;;;;;5069949;28;20447;-54
2022/07/03 09:43:02;;;;;;;6.65;5.20;;;23.60;99.90;;;;;;5068393;28;20101;-55
2022/07/03 09:45:58;;;;;;;9.10;6.10;;;23.50;99.90;;;;;;5069902;28;20115;-54
2022/07/03 09:48:32;;;;;;;8.55;5.78;;;23.70;99.90;;;;;;5069294;28;20039;-56
2022/07/03 09:51:26;;;;;;;8.18;5.70;;;24.10;99.90;;;;;;5068905;28;20024;-53
2022/07/03 09:54:02;;;;;;;8.23;5.28;;;24.30;99.90;;;;;;5062871;28;20504;-53
2022/07/03 09:56:36;;;;;;;7.10;5.50;;;24.40;99.90;;;;;;5068728;28;20487;-54
2022/07/03 09:59:05;;;;;;;7.22;5.15;;;24.40;99.90;;;;;;5062808;28;20025;-54
2022/07/03 10:01:32;;;;;;;7.80;5.65;;;24.30;99.90;;;;;;5055628;28;20036;-54
2022/07/03 10:04:19;;;;;;;7.00;6.15;;;24.20;99.90;;;;;;5069909;28;20095;-54
2022/07/03 10:06:49;;;;;;;7.43;5.67;;;24.10;99.90;;;;;;5069281;28;20486;-54
2022/07/03 10:09:17;;;;;;;7.88;5.13;;;24.40;99.90;;;;;;5066849;28;20270;-54
2022/07/03 10:11:44;;;;;;;6.97;4.68;;;24.60;99.90;;;;;;5067246;28;20094;-53
2022/07/03 10:14:15;;;;;;;7.82;5.57;;;24.90;99.90;;;;;;5058276;28;20093;-54
2022/07/03 10:16:42;;;;;;;7.00;5.45;;;24.90;99.90;;;;;;5066468;28;20041;-54
2022/07/03 10:19:19;;;;;;;6.13;5.53;;;24.30;99.90;;;;;;5065587;28;20033;-54
2022/07/03 10:21:54;;;;;;;6.50;5.18;;;24.60;99.90;;;;;;5068142;28;20121;-55
2022/07/03 10:24:28;;;;;;;6.88;5.57;;;24.90;99.90;;;;;;5068084;28;20066;-53
2022/07/03 10:26:55;;;;;;;7.05;5.40;;;25.20;99.90;;;;;;5072134;28;20036;-54
2022/07/03 10:29:26;;;;;;;6.07;5.47;;;25.30;99.90;;;;;;5070116;28;20488;-52
2022/07/03 10:31:52;;;;;;;6.30;4.90;;;25.40;99.90;;;;;;5063446;28;20040;-54
2022/07/03 10:34:23;;;;;;;5.93;5.07;;;25.70;97.00;;;;;;5068418;28;20021;-53
2022/07/03 10:37:04;;;;;;;7.80;5.25;;;25.80;99.90;;;;;;5061739;28;20202;-53
2022/07/03 10:39:55;;;;;;;8.05;5.60;;;25.80;98.90;;;;;;5068211;28;20028;-53
2022/07/03 10:45:19;;;;;;;6.70;5.22;;;26.20;97.90;;;;;;5067101;28;20074;-53
2022/07/03 10:47:50;;;;;;;8.25;4.95;;;26.30;96.80;;;;;;5068711;28;20038;-53
2022/07/03 10:50:20;;;;;;;6.22;5.13;;;26.40;97.10;;;;;;5061250;28;20025;-53
2022/07/03 10:52:46;;;;;;;9.98;5.70;;;26.40;94.60;;;;;;5068032;28;20028;-55
2022/07/03 10:55:14;;;;;;;5.93;4.93;;;26.60;96.00;;;;;;5066918;28;20080;-55
2022/07/03 10:57:41;;;;;;;7.03;5.05;;;26.60;93.60;;;;;;5061042;28;20817;-53
2022/07/03 11:00:14;;;;;;;5.60;5.00;;;26.30;93.60;;;;;;5071195;28;20028;-54
2022/07/03 11:02:47;;;;;;;6.45;4.90;;;26.10;91.90;;;;;;5071099;28;20468;-54
2022/07/03 11:05:35;;;;;;;6.07;5.35;;;25.90;92.40;;;;;;5071032;28;20047;-55
2022/07/03 11:08:01;;;;;;;;;;;26.30;95.50;;;;;;5071608;28;20025;-54
2022/07/03 11:10:26;;;;;;;7.00;5.78;;;26.50;94.00;;;;;;5071107;28;19923;-55
2022/07/03 11:13:01;;;;;;;7.25;5.85;;;26.30;93.60;;;;;;5070958;28;20116;-55
2022/07/03 11:15:45;;;;;;;6.45;5.72;;;26.70;95.50;;;;;;5071261;28;20021;-54
2022/07/03 11:18:31;;;;;;;5.05;4.55;;;27.00;97.50;;;;;;5070550;28;20036;-55
2022/07/03 11:21:15;;;;;;;6.57;4.97;;;27.60;92.30;;;;;;5068928;28;20209;-53
2022/07/03 11:24:09;;;;;;;7.97;5.20;;;27.60;90.90;;;;;;5071033;28;20060;-55
2022/07/03 11:26:35;;;;;;;7.57;5.47;;;27.90;97.80;;;;;;5069816;28;20048;-54
2022/07/03 11:29:01;;;;;;;7.68;5.28;;;28.40;91.70;;;;;;5069836;28;20025;-55
2022/07/03 11:31:27;;;;;;;7.18;5.15;;;28.30;90.40;;;;;;5068765;28;20032;-55
2022/07/03 11:33:56;;;;;;;5.32;4.68;;;28.00;86.40;;;;;;5067534;28;20103;-54
2022/07/03 11:36:21;;;;;;;5.50;4.88;;;28.10;91.10;;;;;;5066571;28;20044;-55
2022/07/03 11:38:59;;;;;;;6.80;5.13;;;28.30;85.00;;;;;;5068210;28;20013;-54
2022/07/03 11:41:44;;;;;;;6.22;5.50;;;28.00;83.40;;;;;;5067008;28;20028;-54
2022/07/03 11:44:15;;;;;;;5.38;4.85;;;28.20;85.70;;;;;;5070898;28;20029;-55
2022/07/03 11:46:41;;;;;;;6.32;4.80;;;28.50;82.90;;;;;;5068900;28;20118;-54
2022/07/03 11:49:12;;;;;;;9.02;5.90;;;28.60;84.30;;;;;;5070785;28;20048;-54
2022/07/03 11:51:40;;;;;;;8.43;4.97;;;28.40;82.50;;;;;;5068164;28;20033;-55
2022/07/03 11:54:06;;;;;;;7.43;4.80;;;28.50;81.30;;;;;;5070515;28;20543;-54
2022/07/03 11:56:33;;;;;;;6.20;4.45;;;28.50;81.20;;;;;;5070206;28;20112;-55
2022/07/03 11:59:01;;;;;;;6.82;5.07;;;28.60;83.70;;;;;;5068498;28;20025;-55
2022/07/03 12:01:28;;;;;;;8.02;5.05;;;28.60;84.90;;;;;;5068869;28;20032;-54
2022/07/03 12:04:07;;;;;;;7.82;5.32;;;28.50;80.00;;;;;;5066701;28;20016;-53
2022/07/03 12:06:39;;;;;;;6.07;5.00;;;28.30;80.90;;;;;;5066574;28;20041;-53
2022/07/03 12:09:17;;;;;;;6.53;5.47;;;28.20;90.50;;;;;;5067291;28;20095;-54
2022/07/03 12:12:05;;;;;;;7.00;5.80;;;28.10;83.20;;;;;;5067222;28;20504;-54
2022/07/03 12:14:44;;;;;;;6.90;5.60;;;28.20;83.60;;;;;;5066875;28;20063;-54
2022/07/03 12:17:25;;;;;;;6.00;5.05;;;28.30;82.30;;;;;;5069333;28;20033;-53
2022/07/03 12:19:53;;;;;;;6.47;5.05;;;28.00;80.90;;;;;;5069307;28;20063;-54
2022/07/03 12:22:29;;;;;;;11.02;5.07;;;28.00;82.10;;;;;;5069727;28;20032;-54
2022/07/03 12:25:07;;;;;;;6.20;5.22;;;27.80;83.00;;;;;;5069925;28;20032;-55
2022/07/03 12:27:37;;;;;;;7.55;5.60;;;27.90;83.40;;;;;;5070009;28;20028;-54
2022/07/03 12:30:05;;;;;;;6.20;4.97;;;28.10;83.40;;;;;;5069762;28;20112;-54
2022/07/03 12:32:31;;;;;;;5.90;5.13;;;28.10;76.60;;;;;;5069543;28;20554;-55
2022/07/03 12:34:57;;;;;;;8.93;5.47;;;28.00;83.00;;;;;;5069711;28;20024;-54
2022/07/03 12:37:44;;;;;;;8.98;5.03;;;28.20;82.30;;;;;;5069521;28;20025;-53
2022/07/03 12:40:16;;;;;;;6.17;5.30;;;28.10;76.70;;;;;;5069670;28;20032;-56
2022/07/03 12:42:44;;;;;;;5.55;4.85;;;27.90;76.90;;;;;;5069461;28;20024;-55
2022/07/03 12:45:13;;;;;;;7.63;5.63;;;27.90;76.40;;;;;;5066688;28;20533;-56
2022/07/03 12:47:39;;;;;;;6.53;4.90;;;27.90;80.70;;;;;;5036763;28;20546;-56
2022/07/03 12:50:07;;;;;;;7.28;5.40;;;27.80;79.90;;;;;;5066675;28;20020;-54
2022/07/03 12:52:34;;;;;;;6.25;4.82;;;28.10;81.20;;;;;;5068774;28;20048;-55
2022/07/03 12:55:01;;;;;;;7.25;4.57;;;28.30;82.50;;;;;;5069492;28;20177;-55
2022/07/03 13:00:17;;;;;;;6.13;4.32;;;28.60;77.30;;;;;;5067796;28;20430;-56
2022/07/03 13:02:45;;;;;;;7.97;5.28;;;29.10;78.30;;;;;;5067490;28;20047;-56